South Beaver Dam, Wisconsin
Current Conditions -  °F | °C
As of 10:15 AM on Tuesday 21 Oct 2014 (Local Time) from KUNU Reporting Station
Overcast Overcast  
Wind Chill: 39°   Ceiling: 2200
Heat Index: 44°   Visibility: 10mi
Dew Point: 37°   Wind: 10mph
Humidity: 74%   Direction: 10°N
Pressure: 30.23"   Gusts: NA
Location:  43.4576°N, 88.8551°W
Report Text: KUNU 211515Z AUTO 01009KT 10SM OVC022 07/03 A3023 RMK AO2 T00690025
Loading
Personal Weather Stations






























Interactive Weather Map
Tropical Storm Tracking
New forecast layout! Learn more

10-Day Weather Forecast

Advertisements
Track Severe Weather on mobile